sensor_id;sensor_type;location;lat;lon;timestamp;P1;durP1;ratioP1;P2;durP2;ratioP2
36253;SDS011;22291;52.250;21.228;2024-01-30T00:01:02;33.33;;;18.12;;
36253;SDS011;22291;52.250;21.228;2024-01-30T00:03:31;34.00;;;18.77;;
36253;SDS011;22291;52.250;21.228;2024-01-30T00:05:58;38.80;;;19.15;;
36253;SDS011;22291;52.250;21.228;2024-01-30T00:08:24;32.15;;;18.32;;
36253;SDS011;22291;52.250;21.228;2024-01-30T00:10:51;40.08;;;20.40;;
36253;SDS011;22291;52.250;21.228;2024-01-30T00:13:18;35.15;;;18.25;;
36253;SDS011;22291;52.250;21.228;2024-01-30T00:15:45;37.40;;;19.92;;
36253;SDS011;22291;52.250;21.228;2024-01-30T00:18:12;39.78;;;19.15;;
36253;SDS011;22291;52.250;21.228;2024-01-30T00:20:39;38.70;;;20.00;;
36253;SDS011;22291;52.250;21.228;2024-01-30T00:23:06;38.15;;;18.52;;
36253;SDS011;22291;52.250;21.228;2024-01-30T00:25:33;40.30;;;19.37;;
36253;SDS011;22291;52.250;21.228;2024-01-30T00:28:00;40.83;;;20.35;;
36253;SDS011;22291;52.250;21.228;2024-01-30T00:30:26;40.35;;;19.82;;
36253;SDS011;22291;52.250;21.228;2024-01-30T00:32:53;36.20;;;19.77;;
36253;SDS011;22291;52.250;21.228;2024-01-30T00:35:20;35.35;;;19.35;;
36253;SDS011;22291;52.250;21.228;2024-01-30T00:37:48;36.88;;;20.30;;
36253;SDS011;22291;52.250;21.228;2024-01-30T00:40:14;35.03;;;18.75;;
36253;SDS011;22291;52.250;21.228;2024-01-30T00:42:43;36.50;;;18.52;;
36253;SDS011;22291;52.250;21.228;2024-01-30T00:45:13;36.85;;;19.80;;
36253;SDS011;22291;52.250;21.228;2024-01-30T00:47:42;37.33;;;19.65;;
36253;SDS011;22291;52.250;21.228;2024-01-30T00:50:09;41.88;;;20.62;;
36253;SDS011;22291;52.250;21.228;2024-01-30T00:52:37;42.40;;;21.33;;
36253;SDS011;22291;52.250;21.228;2024-01-30T00:55:05;37.83;;;19.42;;
36253;SDS011;22291;52.250;21.228;2024-01-30T00:57:32;37.33;;;20.32;;
36253;SDS011;22291;52.250;21.228;2024-01-30T00:59:59;38.78;;;20.15;;
36253;SDS011;22291;52.250;21.228;2024-01-30T01:02:25;37.13;;;18.62;;
36253;SDS011;22291;52.250;21.228;2024-01-30T01:04:52;45.03;;;20.92;;
36253;SDS011;22291;52.250;21.228;2024-01-30T01:07:19;37.98;;;20.08;;
36253;SDS011;22291;52.250;21.228;2024-01-30T01:09:46;39.33;;;20.00;;
36253;SDS011;22291;52.250;21.228;2024-01-30T01:12:13;39.53;;;21.00;;
36253;SDS011;22291;52.250;21.228;2024-01-30T01:14:40;40.50;;;20.37;;
36253;SDS011;22291;52.250;21.228;2024-01-30T01:17:07;40.78;;;20.90;;
36253;SDS011;22291;52.250;21.228;2024-01-30T01:19:34;39.95;;;20.77;;
36253;SDS011;22291;52.250;21.228;2024-01-30T01:22:01;41.33;;;21.65;;
36253;SDS011;22291;52.250;21.228;2024-01-30T01:24:32;38.90;;;20.05;;
36253;SDS011;22291;52.250;21.228;2024-01-30T01:26:58;36.70;;;20.60;;
36253;SDS011;22291;52.250;21.228;2024-01-30T01:29:26;37.90;;;20.10;;
36253;SDS011;22291;52.250;21.228;2024-01-30T01:31:54;37.55;;;20.57;;
36253;SDS011;22291;52.250;21.228;2024-01-30T01:34:22;38.25;;;20.40;;
36253;SDS011;22291;52.250;21.228;2024-01-30T01:36:49;39.60;;;20.05;;
36253;SDS011;22291;52.250;21.228;2024-01-30T01:39:17;42.98;;;21.10;;
36253;SDS011;22291;52.250;21.228;2024-01-30T01:41:45;39.73;;;20.50;;
36253;SDS011;22291;52.250;21.228;2024-01-30T01:44:11;37.42;;;20.77;;
36253;SDS011;22291;52.250;21.228;2024-01-30T01:46:38;43.45;;;21.05;;
36253;SDS011;22291;52.250;21.228;2024-01-30T01:49:05;40.90;;;20.97;;
36253;SDS011;22291;52.250;21.228;2024-01-30T01:51:33;35.00;;;20.05;;
36253;SDS011;22291;52.250;21.228;2024-01-30T01:54:03;39.73;;;21.35;;
36253;SDS011;22291;52.250;21.228;2024-01-30T01:56:31;41.15;;;21.55;;
36253;SDS011;22291;52.250;21.228;2024-01-30T01:59:05;36.13;;;19.48;;
36253;SDS011;22291;52.250;21.228;2024-01-30T02:01:32;40.33;;;20.55;;
36253;SDS011;22291;52.250;21.228;2024-01-30T02:04:00;39.58;;;20.30;;
36253;SDS011;22291;52.250;21.228;2024-01-30T02:06:28;40.83;;;20.20;;
36253;SDS011;22291;52.250;21.228;2024-01-30T02:08:54;44.00;;;22.93;;
36253;SDS011;22291;52.250;21.228;2024-01-30T02:11:22;46.08;;;22.32;;
36253;SDS011;22291;52.250;21.228;2024-01-30T02:13:49;39.90;;;20.55;;
36253;SDS011;22291;52.250;21.228;2024-01-30T02:16:16;40.08;;;20.05;;
36253;SDS011;22291;52.250;21.228;2024-01-30T02:18:43;41.77;;;22.48;;
36253;SDS011;22291;52.250;21.228;2024-01-30T02:21:11;42.73;;;20.85;;
36253;SDS011;22291;52.250;21.228;2024-01-30T02:23:42;43.58;;;21.60;;
36253;SDS011;22291;52.250;21.228;2024-01-30T02:26:12;42.50;;;22.85;;
36253;SDS011;22291;52.250;21.228;2024-01-30T02:28:39;43.90;;;23.02;;
36253;SDS011;22291;52.250;21.228;2024-01-30T02:31:06;41.10;;;22.37;;
36253;SDS011;22291;52.250;21.228;2024-01-30T02:33:33;44.55;;;22.37;;
36253;SDS011;22291;52.250;21.228;2024-01-30T02:36:01;44.75;;;23.00;;
36253;SDS011;22291;52.250;21.228;2024-01-30T02:38:28;41.25;;;21.68;;
36253;SDS011;22291;52.250;21.228;2024-01-30T02:40:56;48.65;;;23.27;;
36253;SDS011;22291;52.250;21.228;2024-01-30T02:43:22;43.87;;;22.27;;
36253;SDS011;22291;52.250;21.228;2024-01-30T02:45:49;37.58;;;22.10;;
36253;SDS011;22291;52.250;21.228;2024-01-30T02:48:15;42.00;;;22.30;;
36253;SDS011;22291;52.250;21.228;2024-01-30T02:50:43;47.90;;;22.60;;
36253;SDS011;22291;52.250;21.228;2024-01-30T02:53:09;42.78;;;22.98;;
36253;SDS011;22291;52.250;21.228;2024-01-30T02:55:36;42.50;;;21.42;;
36253;SDS011;22291;52.250;21.228;2024-01-30T02:58:03;41.63;;;22.02;;
36253;SDS011;22291;52.250;21.228;2024-01-30T03:00:30;40.33;;;20.77;;
36253;SDS011;22291;52.250;21.228;2024-01-30T03:02:57;50.00;;;24.80;;
36253;SDS011;22291;52.250;21.228;2024-01-30T03:05:24;42.70;;;21.70;;
36253;SDS011;22291;52.250;21.228;2024-01-30T03:07:50;43.40;;;23.10;;
36253;SDS011;22291;52.250;21.228;2024-01-30T03:10:18;43.08;;;22.52;;
36253;SDS011;22291;52.250;21.228;2024-01-30T03:12:45;44.30;;;21.95;;
36253;SDS011;22291;52.250;21.228;2024-01-30T03:15:13;44.18;;;21.87;;
36253;SDS011;22291;52.250;21.228;2024-01-30T03:17:39;40.08;;;21.70;;
36253;SDS011;22291;52.250;21.228;2024-01-30T03:20:07;42.00;;;21.82;;
36253;SDS011;22291;52.250;21.228;2024-01-30T03:22:36;43.92;;;21.60;;
36253;SDS011;22291;52.250;21.228;2024-01-30T03:25:03;44.50;;;23.32;;
36253;SDS011;22291;52.250;21.228;2024-01-30T03:27:33;45.58;;;22.85;;
36253;SDS011;22291;52.250;21.228;2024-01-30T03:30:00;45.55;;;23.20;;
36253;SDS011;22291;52.250;21.228;2024-01-30T03:32:27;44.55;;;22.73;;
36253;SDS011;22291;52.250;21.228;2024-01-30T03:34:54;47.08;;;22.48;;
36253;SDS011;22291;52.250;21.228;2024-01-30T03:37:21;45.95;;;22.80;;
36253;SDS011;22291;52.250;21.228;2024-01-30T03:39:48;46.95;;;22.93;;
36253;SDS011;22291;52.250;21.228;2024-01-30T03:42:15;45.63;;;24.30;;
36253;SDS011;22291;52.250;21.228;2024-01-30T03:44:42;43.85;;;21.62;;
36253;SDS011;22291;52.250;21.228;2024-01-30T03:47:10;93.35;;;84.55;;
36253;SDS011;22291;52.250;21.228;2024-01-30T03:49:37;91.40;;;82.47;;
36253;SDS011;22291;52.250;21.228;2024-01-30T03:52:04;90.60;;;81.73;;
36253;SDS011;22291;52.250;21.228;2024-01-30T03:54:31;90.70;;;81.37;;
36253;SDS011;22291;52.250;21.228;2024-01-30T03:56:57;42.45;;;22.37;;
36253;SDS011;22291;52.250;21.228;2024-01-30T03:59:24;46.60;;;22.75;;
36253;SDS011;22291;52.250;21.228;2024-01-30T04:01:50;43.02;;;23.00;;
36253;SDS011;22291;52.250;21.228;2024-01-30T04:04:18;46.92;;;22.95;;
36253;SDS011;22291;52.250;21.228;2024-01-30T04:06:45;50.90;;;23.83;;
36253;SDS011;22291;52.250;21.228;2024-01-30T04:09:12;47.30;;;23.45;;
36253;SDS011;22291;52.250;21.228;2024-01-30T04:11:40;51.77;;;25.00;;
36253;SDS011;22291;52.250;21.228;2024-01-30T04:14:08;47.65;;;24.23;;
36253;SDS011;22291;52.250;21.228;2024-01-30T04:16:35;44.00;;;23.20;;
36253;SDS011;22291;52.250;21.228;2024-01-30T04:19:02;48.28;;;23.12;;
36253;SDS011;22291;52.250;21.228;2024-01-30T04:21:29;49.60;;;24.02;;
36253;SDS011;22291;52.250;21.228;2024-01-30T04:23:57;47.25;;;23.65;;
36253;SDS011;22291;52.250;21.228;2024-01-30T04:26:25;44.33;;;23.10;;
36253;SDS011;22291;52.250;21.228;2024-01-30T04:28:52;42.25;;;21.60;;
36253;SDS011;22291;52.250;21.228;2024-01-30T04:31:20;45.05;;;23.52;;
36253;SDS011;22291;52.250;21.228;2024-01-30T04:33:47;50.25;;;24.65;;
36253;SDS011;22291;52.250;21.228;2024-01-30T04:36:14;42.45;;;22.65;;
36253;SDS011;22291;52.250;21.228;2024-01-30T04:38:41;39.90;;;22.62;;
36253;SDS011;22291;52.250;21.228;2024-01-30T04:41:08;44.27;;;22.98;;
36253;SDS011;22291;52.250;21.228;2024-01-30T04:43:35;48.33;;;23.98;;
36253;SDS011;22291;52.250;21.228;2024-01-30T04:46:01;47.67;;;24.47;;
36253;SDS011;22291;52.250;21.228;2024-01-30T04:48:28;43.02;;;22.67;;
36253;SDS011;22291;52.250;21.228;2024-01-30T04:50:55;44.20;;;23.12;;
36253;SDS011;22291;52.250;21.228;2024-01-30T04:53:23;49.58;;;23.90;;
36253;SDS011;22291;52.250;21.228;2024-01-30T04:55:50;47.55;;;23.85;;
36253;SDS011;22291;52.250;21.228;2024-01-30T04:58:16;51.70;;;25.05;;
36253;SDS011;22291;52.250;21.228;2024-01-30T05:00:43;43.00;;;22.87;;
36253;SDS011;22291;52.250;21.228;2024-01-30T05:03:12;48.17;;;24.72;;
36253;SDS011;22291;52.250;21.228;2024-01-30T05:05:39;49.03;;;25.25;;
36253;SDS011;22291;52.250;21.228;2024-01-30T05:08:07;44.00;;;22.37;;
36253;SDS011;22291;52.250;21.228;2024-01-30T05:10:34;49.90;;;23.45;;
36253;SDS011;22291;52.250;21.228;2024-01-30T05:13:00;47.75;;;22.87;;
36253;SDS011;22291;52.250;21.228;2024-01-30T05:15:27;45.05;;;23.80;;
36253;SDS011;22291;52.250;21.228;2024-01-30T05:17:55;45.48;;;23.80;;
36253;SDS011;22291;52.250;21.228;2024-01-30T05:20:21;45.75;;;23.07;;
36253;SDS011;22291;52.250;21.228;2024-01-30T05:22:48;46.15;;;24.20;;
36253;SDS011;22291;52.250;21.228;2024-01-30T05:25:14;52.05;;;25.77;;
36253;SDS011;22291;52.250;21.228;2024-01-30T05:27:41;47.48;;;23.73;;
36253;SDS011;22291;52.250;21.228;2024-01-30T05:30:09;42.43;;;22.82;;
36253;SDS011;22291;52.250;21.228;2024-01-30T05:32:38;46.73;;;24.07;;
36253;SDS011;22291;52.250;21.228;2024-01-30T05:35:06;43.87;;;24.55;;
36253;SDS011;22291;52.250;21.228;2024-01-30T05:37:34;46.95;;;23.98;;
36253;SDS011;22291;52.250;21.228;2024-01-30T05:40:00;43.05;;;23.20;;
36253;SDS011;22291;52.250;21.228;2024-01-30T05:42:27;50.58;;;24.77;;
36253;SDS011;22291;52.250;21.228;2024-01-30T05:44:54;46.30;;;23.85;;
36253;SDS011;22291;52.250;21.228;2024-01-30T05:47:21;49.60;;;25.95;;
36253;SDS011;22291;52.250;21.228;2024-01-30T05:49:48;52.55;;;24.77;;
36253;SDS011;22291;52.250;21.228;2024-01-30T05:52:16;49.65;;;24.52;;
36253;SDS011;22291;52.250;21.228;2024-01-30T05:54:44;48.23;;;24.60;;
36253;SDS011;22291;52.250;21.228;2024-01-30T05:57:10;52.23;;;26.07;;
36253;SDS011;22291;52.250;21.228;2024-01-30T05:59:37;49.03;;;24.32;;
36253;SDS011;22291;52.250;21.228;2024-01-30T06:02:03;48.05;;;24.82;;
36253;SDS011;22291;52.250;21.228;2024-01-30T06:04:31;46.90;;;25.08;;
36253;SDS011;22291;52.250;21.228;2024-01-30T06:06:57;50.95;;;24.40;;
36253;SDS011;22291;52.250;21.228;2024-01-30T06:09:26;48.50;;;25.85;;
36253;SDS011;22291;52.250;21.228;2024-01-30T06:11:54;43.55;;;23.42;;
36253;SDS011;22291;52.250;21.228;2024-01-30T06:14:21;52.60;;;24.72;;
36253;SDS011;22291;52.250;21.228;2024-01-30T06:16:49;43.38;;;23.70;;
36253;SDS011;22291;52.250;21.228;2024-01-30T06:19:16;54.93;;;25.80;;
36253;SDS011;22291;52.250;21.228;2024-01-30T06:21:44;50.80;;;24.12;;
36253;SDS011;22291;52.250;21.228;2024-01-30T06:24:11;48.80;;;24.43;;
36253;SDS011;22291;52.250;21.228;2024-01-30T06:26:39;49.42;;;25.82;;
36253;SDS011;22291;52.250;21.228;2024-01-30T06:29:07;53.45;;;25.55;;
36253;SDS011;22291;52.250;21.228;2024-01-30T06:31:41;64.55;;;36.13;;
36253;SDS011;22291;52.250;21.228;2024-01-30T06:34:08;54.73;;;25.80;;
36253;SDS011;22291;52.250;21.228;2024-01-30T06:36:39;50.00;;;24.95;;
36253;SDS011;22291;52.250;21.228;2024-01-30T06:39:06;48.50;;;24.43;;
36253;SDS011;22291;52.250;21.228;2024-01-30T06:41:34;52.55;;;25.25;;
36253;SDS011;22291;52.250;21.228;2024-01-30T06:44:05;49.93;;;23.57;;
36253;SDS011;22291;52.250;21.228;2024-01-30T06:46:35;48.83;;;25.20;;
36253;SDS011;22291;52.250;21.228;2024-01-30T06:49:02;52.03;;;24.52;;
36253;SDS011;22291;52.250;21.228;2024-01-30T06:51:29;53.90;;;26.15;;
36253;SDS011;22291;52.250;21.228;2024-01-30T06:53:55;48.25;;;24.12;;
36253;SDS011;22291;52.250;21.228;2024-01-30T06:56:22;47.38;;;24.72;;
36253;SDS011;22291;52.250;21.228;2024-01-30T06:58:51;52.23;;;24.90;;
36253;SDS011;22291;52.250;21.228;2024-01-30T07:01:17;41.83;;;22.52;;
36253;SDS011;22291;52.250;21.228;2024-01-30T07:03:46;48.63;;;23.47;;
36253;SDS011;22291;52.250;21.228;2024-01-30T07:06:14;54.18;;;25.17;;
36253;SDS011;22291;52.250;21.228;2024-01-30T07:08:43;48.95;;;23.98;;
36253;SDS011;22291;52.250;21.228;2024-01-30T07:11:10;48.73;;;24.52;;
36253;SDS011;22291;52.250;21.228;2024-01-30T07:13:38;50.73;;;24.35;;
36253;SDS011;22291;52.250;21.228;2024-01-30T07:16:06;50.38;;;24.63;;
36253;SDS011;22291;52.250;21.228;2024-01-30T07:18:34;49.70;;;25.23;;
36253;SDS011;22291;52.250;21.228;2024-01-30T07:21:01;44.40;;;23.23;;
36253;SDS011;22291;52.250;21.228;2024-01-30T07:23:30;47.95;;;24.27;;
36253;SDS011;22291;52.250;21.228;2024-01-30T07:26:01;49.90;;;24.75;;
36253;SDS011;22291;52.250;21.228;2024-01-30T07:28:29;48.78;;;24.47;;
36253;SDS011;22291;52.250;21.228;2024-01-30T07:30:57;78.12;;;43.87;;
36253;SDS011;22291;52.250;21.228;2024-01-30T07:33:24;68.78;;;36.35;;
36253;SDS011;22291;52.250;21.228;2024-01-30T07:35:52;47.10;;;25.05;;
36253;SDS011;22291;52.250;21.228;2024-01-30T07:38:21;47.65;;;24.35;;
36253;SDS011;22291;52.250;21.228;2024-01-30T07:40:47;45.63;;;23.75;;
36253;SDS011;22291;52.250;21.228;2024-01-30T07:43:14;50.55;;;25.82;;
36253;SDS011;22291;52.250;21.228;2024-01-30T07:45:40;46.05;;;24.87;;
36253;SDS011;22291;52.250;21.228;2024-01-30T07:48:07;46.13;;;23.50;;
36253;SDS011;22291;52.250;21.228;2024-01-30T07:50:36;45.25;;;22.90;;
36253;SDS011;22291;52.250;21.228;2024-01-30T07:53:05;45.63;;;23.47;;
36253;SDS011;22291;52.250;21.228;2024-01-30T07:58:00;44.33;;;23.67;;
36253;SDS011;22291;52.250;21.228;2024-01-30T08:00:30;47.55;;;24.02;;
36253;SDS011;22291;52.250;21.228;2024-01-30T08:02:58;43.23;;;23.30;;
36253;SDS011;22291;52.250;21.228;2024-01-30T08:05:26;48.28;;;22.82;;
36253;SDS011;22291;52.250;21.228;2024-01-30T08:07:53;44.18;;;23.70;;
36253;SDS011;22291;52.250;21.228;2024-01-30T08:10:19;41.45;;;21.95;;
36253;SDS011;22291;52.250;21.228;2024-01-30T08:12:48;42.30;;;22.90;;
36253;SDS011;22291;52.250;21.228;2024-01-30T08:15:16;40.38;;;21.02;;
36253;SDS011;22291;52.250;21.228;2024-01-30T08:17:45;39.78;;;21.80;;
36253;SDS011;22291;52.250;21.228;2024-01-30T08:20:11;41.33;;;22.48;;
36253;SDS011;22291;52.250;21.228;2024-01-30T08:22:40;39.60;;;21.95;;
36253;SDS011;22291;52.250;21.228;2024-01-30T08:25:11;37.03;;;21.93;;
36253;SDS011;22291;52.250;21.228;2024-01-30T08:27:37;48.40;;;25.45;;
36253;SDS011;22291;52.250;21.228;2024-01-30T08:30:12;44.35;;;25.62;;
36253;SDS011;22291;52.250;21.228;2024-01-30T08:32:40;38.42;;;22.35;;
36253;SDS011;22291;52.250;21.228;2024-01-30T08:35:10;39.55;;;21.62;;
36253;SDS011;22291;52.250;21.228;2024-01-30T08:37:39;36.77;;;21.60;;
36253;SDS011;22291;52.250;21.228;2024-01-30T08:40:12;36.25;;;20.57;;
36253;SDS011;22291;52.250;21.228;2024-01-30T08:42:39;41.28;;;21.70;;
36253;SDS011;22291;52.250;21.228;2024-01-30T08:45:10;37.73;;;20.82;;
36253;SDS011;22291;52.250;21.228;2024-01-30T08:47:38;43.63;;;21.68;;
36253;SDS011;22291;52.250;21.228;2024-01-30T08:50:09;39.60;;;21.95;;
36253;SDS011;22291;52.250;21.228;2024-01-30T08:52:38;38.65;;;21.68;;
36253;SDS011;22291;52.250;21.228;2024-01-30T08:55:04;35.75;;;20.68;;
36253;SDS011;22291;52.250;21.228;2024-01-30T08:57:37;40.23;;;21.48;;
36253;SDS011;22291;52.250;21.228;2024-01-30T09:00:09;36.08;;;20.92;;
36253;SDS011;22291;52.250;21.228;2024-01-30T09:02:38;38.42;;;22.15;;
36253;SDS011;22291;52.250;21.228;2024-01-30T09:05:07;40.88;;;22.22;;
36253;SDS011;22291;52.250;21.228;2024-01-30T09:07:37;35.48;;;20.90;;
36253;SDS011;22291;52.250;21.228;2024-01-30T09:10:08;40.03;;;21.42;;
36253;SDS011;22291;52.250;21.228;2024-01-30T09:12:37;43.42;;;21.90;;
36253;SDS011;22291;52.250;21.228;2024-01-30T09:15:08;37.95;;;21.42;;
36253;SDS011;22291;52.250;21.228;2024-01-30T09:17:37;37.00;;;21.07;;
36253;SDS011;22291;52.250;21.228;2024-01-30T09:20:06;36.33;;;21.62;;
36253;SDS011;22291;52.250;21.228;2024-01-30T09:22:37;36.00;;;21.73;;
36253;SDS011;22291;52.250;21.228;2024-01-30T09:25:06;35.08;;;20.43;;
36253;SDS011;22291;52.250;21.228;2024-01-30T09:27:38;36.08;;;21.20;;
36253;SDS011;22291;52.250;21.228;2024-01-30T09:30:11;39.10;;;22.25;;
36253;SDS011;22291;52.250;21.228;2024-01-30T09:32:42;40.55;;;21.37;;
36253;SDS011;22291;52.250;21.228;2024-01-30T09:35:09;39.80;;;21.93;;
36253;SDS011;22291;52.250;21.228;2024-01-30T09:37:36;35.48;;;20.55;;
36253;SDS011;22291;52.250;21.228;2024-01-30T09:40:03;37.67;;;21.60;;
36253;SDS011;22291;52.250;21.228;2024-01-30T09:42:35;36.80;;;21.85;;
36253;SDS011;22291;52.250;21.228;2024-01-30T09:45:02;35.15;;;20.57;;
36253;SDS011;22291;52.250;21.228;2024-01-30T09:47:35;33.18;;;20.25;;
36253;SDS011;22291;52.250;21.228;2024-01-30T09:50:05;37.35;;;21.23;;
36253;SDS011;22291;52.250;21.228;2024-01-30T09:52:33;38.83;;;21.07;;
36253;SDS011;22291;52.250;21.228;2024-01-30T09:55:01;37.08;;;20.43;;
36253;SDS011;22291;52.250;21.228;2024-01-30T09:57:28;36.28;;;20.75;;
36253;SDS011;22291;52.250;21.228;2024-01-30T09:59:55;31.37;;;20.20;;
36253;SDS011;22291;52.250;21.228;2024-01-30T10:02:22;33.98;;;20.12;;
36253;SDS011;22291;52.250;21.228;2024-01-30T10:04:49;35.92;;;21.00;;
36253;SDS011;22291;52.250;21.228;2024-01-30T10:07:17;35.78;;;20.92;;
36253;SDS011;22291;52.250;21.228;2024-01-30T10:09:45;34.90;;;21.55;;
36253;SDS011;22291;52.250;21.228;2024-01-30T10:12:12;35.60;;;20.52;;
36253;SDS011;22291;52.250;21.228;2024-01-30T10:14:39;35.55;;;21.10;;
36253;SDS011;22291;52.250;21.228;2024-01-30T10:17:09;34.67;;;20.37;;
36253;SDS011;22291;52.250;21.228;2024-01-30T10:19:41;33.02;;;20.15;;
36253;SDS011;22291;52.250;21.228;2024-01-30T10:24:33;36.40;;;20.23;;
36253;SDS011;22291;52.250;21.228;2024-01-30T10:27:00;33.63;;;20.08;;
36253;SDS011;22291;52.250;21.228;2024-01-30T10:29:28;34.08;;;19.65;;
36253;SDS011;22291;52.250;21.228;2024-01-30T10:32:01;32.90;;;18.65;;
36253;SDS011;22291;52.250;21.228;2024-01-30T10:34:30;36.68;;;20.32;;
36253;SDS011;22291;52.250;21.228;2024-01-30T10:37:06;33.63;;;20.60;;
36253;SDS011;22291;52.250;21.228;2024-01-30T10:39:45;31.02;;;19.37;;
36253;SDS011;22291;52.250;21.228;2024-01-30T10:42:13;29.85;;;18.48;;
36253;SDS011;22291;52.250;21.228;2024-01-30T10:47:26;31.50;;;18.12;;
36253;SDS011;22291;52.250;21.228;2024-01-30T10:49:56;32.88;;;18.70;;
36253;SDS011;22291;52.250;21.228;2024-01-30T10:52:23;29.98;;;18.65;;
36253;SDS011;22291;52.250;21.228;2024-01-30T10:57:22;29.37;;;18.67;;
36253;SDS011;22291;52.250;21.228;2024-01-30T10:59:51;27.13;;;17.75;;
36253;SDS011;22291;52.250;21.228;2024-01-30T11:02:24;27.10;;;17.12;;
36253;SDS011;22291;52.250;21.228;2024-01-30T11:04:56;27.58;;;16.90;;
36253;SDS011;22291;52.250;21.228;2024-01-30T11:07:25;24.82;;;17.02;;
36253;SDS011;22291;52.250;21.228;2024-01-30T11:10:04;28.15;;;16.85;;
36253;SDS011;22291;52.250;21.228;2024-01-30T11:12:28;26.77;;;16.75;;
36253;SDS011;22291;52.250;21.228;2024-01-30T11:15:07;24.15;;;16.02;;
36253;SDS011;22291;52.250;21.228;2024-01-30T11:22:52;25.75;;;16.77;;
36253;SDS011;22291;52.250;21.228;2024-01-30T11:25:22;25.97;;;16.10;;
36253;SDS011;22291;52.250;21.228;2024-01-30T11:27:50;26.35;;;16.45;;
36253;SDS011;22291;52.250;21.228;2024-01-30T11:30:29;24.50;;;16.82;;
36253;SDS011;22291;52.250;21.228;2024-01-30T11:33:07;24.72;;;15.63;;
36253;SDS011;22291;52.250;21.228;2024-01-30T11:35:40;26.27;;;16.10;;
36253;SDS011;22291;52.250;21.228;2024-01-30T11:38:09;27.27;;;17.25;;
36253;SDS011;22291;52.250;21.228;2024-01-30T11:40:38;25.50;;;16.87;;
36253;SDS011;22291;52.250;21.228;2024-01-30T11:43:07;30.92;;;19.52;;
36253;SDS011;22291;52.250;21.228;2024-01-30T11:45:35;26.62;;;16.12;;
36253;SDS011;22291;52.250;21.228;2024-01-30T11:48:04;23.62;;;16.00;;
36253;SDS011;22291;52.250;21.228;2024-01-30T11:53:01;24.47;;;14.87;;
36253;SDS011;22291;52.250;21.228;2024-01-30T11:55:31;28.42;;;16.40;;
36253;SDS011;22291;52.250;21.228;2024-01-30T11:58:00;23.38;;;15.30;;
36253;SDS011;22291;52.250;21.228;2024-01-30T12:00:27;24.43;;;15.30;;
36253;SDS011;22291;52.250;21.228;2024-01-30T12:02:55;29.30;;;15.77;;
36253;SDS011;22291;52.250;21.228;2024-01-30T12:05:23;25.08;;;16.62;;
36253;SDS011;22291;52.250;21.228;2024-01-30T12:07:51;24.80;;;15.95;;
36253;SDS011;22291;52.250;21.228;2024-01-30T12:10:20;27.55;;;16.40;;
36253;SDS011;22291;52.250;21.228;2024-01-30T12:12:48;25.70;;;16.23;;
36253;SDS011;22291;52.250;21.228;2024-01-30T12:15:16;26.00;;;16.48;;
36253;SDS011;22291;52.250;21.228;2024-01-30T12:17:46;24.45;;;15.40;;
36253;SDS011;22291;52.250;21.228;2024-01-30T12:20:14;23.15;;;14.58;;
36253;SDS011;22291;52.250;21.228;2024-01-30T12:22:44;27.52;;;16.10;;
36253;SDS011;22291;52.250;21.228;2024-01-30T12:25:17;24.37;;;15.32;;
36253;SDS011;22291;52.250;21.228;2024-01-30T12:27:52;27.52;;;16.48;;
36253;SDS011;22291;52.250;21.228;2024-01-30T12:30:20;26.60;;;15.58;;
36253;SDS011;22291;52.250;21.228;2024-01-30T12:32:49;32.17;;;16.90;;
36253;SDS011;22291;52.250;21.228;2024-01-30T12:35:17;27.80;;;15.88;;
36253;SDS011;22291;52.250;21.228;2024-01-30T12:37:47;25.97;;;15.75;;
36253;SDS011;22291;52.250;21.228;2024-01-30T12:40:16;28.07;;;16.00;;
36253;SDS011;22291;52.250;21.228;2024-01-30T12:42:45;23.60;;;14.78;;
36253;SDS011;22291;52.250;21.228;2024-01-30T12:45:16;27.85;;;16.23;;
36253;SDS011;22291;52.250;21.228;2024-01-30T12:47:48;21.17;;;13.98;;
36253;SDS011;22291;52.250;21.228;2024-01-30T12:50:14;23.18;;;14.68;;
36253;SDS011;22291;52.250;21.228;2024-01-30T12:52:43;28.43;;;16.17;;
36253;SDS011;22291;52.250;21.228;2024-01-30T12:55:10;24.35;;;15.93;;
36253;SDS011;22291;52.250;21.228;2024-01-30T12:57:36;23.50;;;16.52;;
36253;SDS011;22291;52.250;21.228;2024-01-30T13:00:05;28.62;;;16.42;;
36253;SDS011;22291;52.250;21.228;2024-01-30T13:02:34;23.70;;;15.40;;
36253;SDS011;22291;52.250;21.228;2024-01-30T13:05:02;31.13;;;16.03;;
36253;SDS011;22291;52.250;21.228;2024-01-30T13:07:30;28.20;;;15.45;;
36253;SDS011;22291;52.250;21.228;2024-01-30T13:09:56;23.75;;;15.70;;
36253;SDS011;22291;52.250;21.228;2024-01-30T13:12:28;26.05;;;15.35;;
36253;SDS011;22291;52.250;21.228;2024-01-30T13:14:55;28.12;;;16.07;;
36253;SDS011;22291;52.250;21.228;2024-01-30T13:17:22;24.77;;;15.60;;
36253;SDS011;22291;52.250;21.228;2024-01-30T13:19:48;26.05;;;16.12;;
36253;SDS011;22291;52.250;21.228;2024-01-30T13:22:15;26.57;;;16.57;;
36253;SDS011;22291;52.250;21.228;2024-01-30T13:24:42;24.77;;;14.87;;
36253;SDS011;22291;52.250;21.228;2024-01-30T13:27:09;23.90;;;14.63;;
36253;SDS011;22291;52.250;21.228;2024-01-30T13:29:35;32.55;;;15.88;;
36253;SDS011;22291;52.250;21.228;2024-01-30T13:32:03;25.05;;;14.70;;
36253;SDS011;22291;52.250;21.228;2024-01-30T13:34:30;24.07;;;15.18;;
36253;SDS011;22291;52.250;21.228;2024-01-30T13:36:58;25.90;;;15.68;;
36253;SDS011;22291;52.250;21.228;2024-01-30T13:39:25;30.88;;;16.48;;
36253;SDS011;22291;52.250;21.228;2024-01-30T13:41:52;28.45;;;15.60;;
36253;SDS011;22291;52.250;21.228;2024-01-30T13:44:18;24.18;;;15.30;;
36253;SDS011;22291;52.250;21.228;2024-01-30T13:46:46;26.62;;;15.65;;
36253;SDS011;22291;52.250;21.228;2024-01-30T13:49:13;26.87;;;15.50;;
36253;SDS011;22291;52.250;21.228;2024-01-30T13:51:40;27.50;;;15.70;;
36253;SDS011;22291;52.250;21.228;2024-01-30T13:54:07;27.73;;;15.83;;
36253;SDS011;22291;52.250;21.228;2024-01-30T13:56:34;29.45;;;15.35;;
36253;SDS011;22291;52.250;21.228;2024-01-30T13:59:00;25.90;;;15.72;;
36253;SDS011;22291;52.250;21.228;2024-01-30T14:01:29;26.15;;;14.68;;
36253;SDS011;22291;52.250;21.228;2024-01-30T14:03:56;27.40;;;15.65;;
36253;SDS011;22291;52.250;21.228;2024-01-30T14:06:22;25.45;;;14.95;;
36253;SDS011;22291;52.250;21.228;2024-01-30T14:08:49;27.60;;;15.48;;
36253;SDS011;22291;52.250;21.228;2024-01-30T14:11:15;25.08;;;15.23;;
36253;SDS011;22291;52.250;21.228;2024-01-30T14:13:42;26.68;;;15.53;;
36253;SDS011;22291;52.250;21.228;2024-01-30T14:16:09;25.48;;;16.07;;
36253;SDS011;22291;52.250;21.228;2024-01-30T14:18:36;24.67;;;14.35;;
36253;SDS011;22291;52.250;21.228;2024-01-30T14:21:03;26.07;;;15.03;;
36253;SDS011;22291;52.250;21.228;2024-01-30T14:23:29;22.00;;;14.80;;
36253;SDS011;22291;52.250;21.228;2024-01-30T14:25:56;27.60;;;14.38;;
36253;SDS011;22291;52.250;21.228;2024-01-30T14:28:23;29.55;;;17.05;;
36253;SDS011;22291;52.250;21.228;2024-01-30T14:30:49;30.68;;;14.98;;